Time;durP1;ratioP1;P1;durP2;ratioP2;P2;SDS_P1;SDS_P2;PMS_P1;PMS_P2;Temp;Humidity;BMP_temperature;BMP_pressure;BME280_temperature;BME280_humidity;BME280_pressure;Samples;Min_cycle;Max_cycle;Signal;HPM_P1;HPM_P2
2022/03/23 00:02:12;;;;;;;16.27;10.88;;;20.90;51.60;;;;;;4880095;29;20057;-59
2022/03/23 00:04:39;;;;;;;16.52;10.32;;;20.90;51.60;;;;;;4880653;29;20109;-59
2022/03/23 00:07:04;;;;;;;14.73;10.25;;;20.90;51.60;;;;;;4879739;29;20060;-58
2022/03/23 00:09:30;;;;;;;14.75;10.23;;;20.90;51.60;;;;;;4880476;29;20407;-58
2022/03/23 00:11:55;;;;;;;14.57;10.30;;;20.90;51.60;;;;;;4880583;29;20052;-59
2022/03/23 00:14:21;;;;;;;16.88;10.07;;;20.90;51.50;;;;;;4879646;29;20083;-59
2022/03/23 00:16:46;;;;;;;13.57;9.85;;;20.80;51.50;;;;;;4880543;29;20450;-59
2022/03/23 00:19:12;;;;;;;15.05;10.07;;;20.90;51.50;;;;;;4880163;29;20063;-59
2022/03/23 00:21:38;;;;;;;14.20;9.90;;;20.80;51.40;;;;;;4879768;29;20044;-59
2022/03/23 00:24:04;;;;;;;16.05;10.40;;;20.80;51.40;;;;;;4880296;29;20049;-59
2022/03/23 00:26:30;;;;;;;14.77;9.73;;;20.80;51.40;;;;;;4879965;29;20543;-59
2022/03/23 00:28:56;;;;;;;13.40;9.60;;;20.80;51.40;;;;;;4879845;29;20500;-59
2022/03/23 00:31:22;;;;;;;13.20;9.85;;;20.80;51.40;;;;;;4879844;29;20049;-59
2022/03/23 00:33:48;;;;;;;14.40;10.18;;;20.80;51.40;;;;;;4879945;29;20116;-58
2022/03/23 00:36:15;;;;;;;15.85;9.65;;;20.80;51.30;;;;;;4878845;29;20458;-59
2022/03/23 00:38:41;;;;;;;14.80;9.93;;;20.70;51.30;;;;;;4879800;29;20508;-59
2022/03/23 00:41:06;;;;;;;13.73;9.60;;;20.70;51.30;;;;;;4880305;29;20045;-59
2022/03/23 00:43:32;;;;;;;13.20;8.88;;;20.70;51.20;;;;;;4878970;29;20045;-59
2022/03/23 00:45:58;;;;;;;12.65;9.32;;;20.70;51.20;;;;;;4879999;29;20116;-58
2022/03/23 00:48:23;;;;;;;12.57;9.23;;;20.70;51.20;;;;;;4879785;29;20045;-59
2022/03/23 00:50:49;;;;;;;14.50;9.82;;;20.70;51.20;;;;;;4879004;29;20049;-59
2022/03/23 00:53:15;;;;;;;12.95;9.32;;;20.70;51.20;;;;;;4879310;29;20049;-59
2022/03/23 00:55:41;;;;;;;15.95;9.35;;;20.70;51.10;;;;;;4879932;29;20124;-58
2022/03/23 00:58:07;;;;;;;15.82;9.40;;;20.70;51.10;;;;;;4879094;29;20045;-58
2022/03/23 01:00:33;;;;;;;13.07;9.50;;;20.60;51.10;;;;;;4879549;29;20049;-59
2022/03/23 01:02:58;;;;;;;13.63;9.55;;;20.60;51.00;;;;;;4879786;29;20128;-59
2022/03/23 01:05:24;;;;;;;13.27;9.55;;;20.60;51.00;;;;;;4878504;29;20045;-59
2022/03/23 01:07:49;;;;;;;13.80;10.20;;;20.60;51.00;;;;;;4879929;29;20049;-59
2022/03/23 01:10:15;;;;;;;14.07;9.70;;;20.60;51.00;;;;;;4877348;29;20049;-59
2022/03/23 01:12:44;;;;;;;12.65;9.90;;;20.60;51.00;;;;;;4879340;29;20057;-59
2022/03/23 01:15:11;;;;;;;14.23;9.73;;;20.60;51.00;;;;;;4879352;29;20088;-59
2022/03/23 01:17:37;;;;;;;14.65;8.90;;;20.60;51.00;;;;;;4878483;29;20056;-59
2022/03/23 01:20:05;;;;;;;13.85;9.38;;;20.60;50.90;;;;;;4879533;29;20047;-59
2022/03/23 01:22:31;;;;;;;12.85;8.98;;;20.60;50.90;;;;;;4879307;29;20049;-59
2022/03/23 01:24:56;;;;;;;12.77;9.25;;;20.60;50.90;;;;;;4878871;29;20123;-59
2022/03/23 01:27:21;;;;;;;13.13;9.15;;;20.60;50.90;;;;;;4878786;29;20097;-59
2022/03/23 01:29:47;;;;;;;13.05;9.40;;;20.50;50.80;;;;;;4879473;29;20041;-59
2022/03/23 01:32:12;;;;;;;13.90;9.05;;;20.50;50.80;;;;;;4876948;29;20049;-59
2022/03/23 01:34:38;;;;;;;13.60;9.35;;;20.50;50.80;;;;;;4879345;29;20037;-58
2022/03/23 01:37:03;;;;;;;12.32;9.15;;;20.50;50.80;;;;;;4879274;29;20088;-59
2022/03/23 01:39:29;;;;;;;12.77;9.68;;;20.50;50.70;;;;;;4877917;29;20044;-59
2022/03/23 01:41:55;;;;;;;11.98;8.90;;;20.50;50.70;;;;;;4879205;29;20065;-59
2022/03/23 01:44:22;;;;;;;13.77;9.88;;;20.50;50.70;;;;;;4878996;29;20081;-59
2022/03/23 01:47:01;;;;;;;13.77;9.40;;;20.50;50.70;;;;;;4878261;29;20051;-59
2022/03/23 01:49:27;;;;;;;12.85;8.70;;;20.40;50.60;;;;;;4878865;29;20056;-59
2022/03/23 01:51:52;;;;;;;12.70;9.05;;;20.40;50.60;;;;;;4879068;29;20048;-59
2022/03/23 01:54:18;;;;;;;12.20;9.25;;;20.40;50.60;;;;;;4878004;29;20045;-59
2022/03/23 01:56:43;;;;;;;12.57;8.73;;;20.40;50.60;;;;;;4879005;29;20409;-59
2022/03/23 01:59:09;;;;;;;12.93;9.32;;;20.40;50.60;;;;;;4877852;29;20041;-59
2022/03/23 02:01:35;;;;;;;13.52;9.25;;;20.40;50.60;;;;;;4877865;29;20393;-59
2022/03/23 02:04:00;;;;;;;14.02;9.55;;;20.40;50.50;;;;;;4879115;29;20076;-59
2022/03/23 02:06:26;;;;;;;12.05;8.80;;;20.40;50.50;;;;;;4881458;29;20087;-59
2022/03/23 02:08:51;;;;;;;12.38;8.88;;;20.40;50.50;;;;;;4882334;29;20433;-59
2022/03/23 02:11:17;;;;;;;12.52;8.55;;;20.40;50.50;;;;;;4881908;29;20053;-59
2022/03/23 02:13:42;;;;;;;12.38;9.23;;;20.40;50.50;;;;;;4881698;29;20572;-59
2022/03/23 02:16:08;;;;;;;11.55;8.75;;;20.30;50.40;;;;;;4882532;29;20053;-58
2022/03/23 02:18:34;;;;;;;11.77;9.02;;;20.30;50.40;;;;;;4881012;29;20394;-59
2022/03/23 02:21:00;;;;;;;12.07;9.10;;;20.30;50.40;;;;;;4882024;29;20524;-59
2022/03/23 02:23:26;;;;;;;11.68;8.85;;;20.30;50.40;;;;;;4882065;29;20496;-59
2022/03/23 02:25:51;;;;;;;12.93;9.05;;;20.30;50.40;;;;;;4882495;29;20045;-59
2022/03/23 02:28:17;;;;;;;11.40;8.52;;;20.30;50.40;;;;;;4880414;29;20049;-58
2022/03/23 02:30:42;;;;;;;12.07;8.88;;;20.30;50.40;;;;;;4881309;29;20052;-59
2022/03/23 02:33:09;;;;;;;12.20;8.98;;;20.30;50.30;;;;;;4882446;29;20049;-59
2022/03/23 02:35:35;;;;;;;11.13;8.50;;;20.30;50.40;;;;;;4881407;29;20080;-59
2022/03/23 02:38:00;;;;;;;11.35;8.32;;;20.30;50.40;;;;;;4882177;29;20087;-58
2022/03/23 02:40:26;;;;;;;10.85;7.93;;;20.30;50.30;;;;;;4882008;29;20061;-59
2022/03/23 02:42:51;;;;;;;12.38;8.65;;;20.30;50.30;;;;;;4881482;29;20045;-59
2022/03/23 02:45:18;;;;;;;11.63;8.60;;;20.20;50.20;;;;;;4881573;29;20104;-59
2022/03/23 02:47:43;;;;;;;10.98;7.97;;;20.20;50.20;;;;;;4882179;29;20088;-59
2022/03/23 02:50:09;;;;;;;14.45;8.55;;;20.30;50.30;;;;;;4881377;29;20518;-59
2022/03/23 02:52:35;;;;;;;11.63;8.73;;;20.20;50.20;;;;;;4881844;29;20132;-59
2022/03/23 03:03:41;;;;;;;11.68;8.50;;;20.20;50.10;;;;;;4881051;29;20049;-59
2022/03/23 03:06:07;;;;;;;11.48;8.43;;;20.20;50.20;;;;;;4881238;29;20382;-59
2022/03/23 03:08:48;;;;;;;12.15;8.40;;;20.20;50.10;;;;;;4881039;29;20045;-59
2022/03/23 03:11:15;;;;;;;12.18;8.85;;;20.20;50.10;;;;;;4880565;29;20483;-59
2022/03/23 03:13:41;;;;;;;11.88;8.63;;;20.10;50.10;;;;;;4881307;29;20045;-59
2022/03/23 03:16:06;;;;;;;12.20;8.52;;;20.10;50.00;;;;;;4881226;29;20128;-59
2022/03/23 03:18:33;;;;;;;11.18;8.23;;;20.10;50.00;;;;;;4880280;29;20120;-59
2022/03/23 03:21:00;;;;;;;10.73;8.48;;;20.20;50.10;;;;;;4881615;29;20105;-58
2022/03/23 03:23:25;;;;;;;12.20;8.73;;;20.10;50.10;;;;;;4881166;29;20080;-59
2022/03/23 03:25:51;;;;;;;13.30;8.55;;;20.10;50.10;;;;;;4880746;29;20104;-59
2022/03/23 03:28:17;;;;;;;11.65;8.35;;;20.20;50.10;;;;;;4880939;29;20116;-59
2022/03/23 03:30:42;;;;;;;10.95;7.95;;;20.10;50.00;;;;;;4881452;29;20111;-59
2022/03/23 03:33:08;;;;;;;10.38;8.05;;;20.10;50.00;;;;;;4880649;29;20119;-59
2022/03/23 03:35:33;;;;;;;11.10;8.05;;;20.10;49.90;;;;;;4881174;29;20049;-59
2022/03/23 03:37:59;;;;;;;10.63;8.27;;;20.10;49.90;;;;;;4880608;29;20132;-59
2022/03/23 03:40:24;;;;;;;9.23;7.60;;;20.20;49.90;;;;;;4879238;29;20057;-59
2022/03/23 03:42:50;;;;;;;12.30;8.32;;;20.20;49.90;;;;;;4881190;29;20045;-59
2022/03/23 03:45:15;;;;;;;9.30;7.85;;;20.10;49.80;;;;;;4880061;29;20057;-59
2022/03/23 03:47:41;;;;;;;12.30;8.38;;;20.10;49.70;;;;;;4881110;29;20093;-59
2022/03/23 03:50:06;;;;;;;11.80;8.57;;;20.10;49.70;;;;;;4880975;29;20051;-59
2022/03/23 03:52:32;;;;;;;11.73;8.23;;;20.10;49.70;;;;;;4879702;29;20053;-59
2022/03/23 03:54:57;;;;;;;11.30;8.50;;;20.20;49.80;;;;;;4881101;29;20127;-59
2022/03/23 03:57:23;;;;;;;11.55;8.63;;;20.20;49.80;;;;;;4880742;29;20136;-59
2022/03/23 03:59:48;;;;;;;11.93;8.43;;;20.20;49.80;;;;;;4880195;29;20056;-59
2022/03/23 04:02:14;;;;;;;10.27;7.93;;;20.20;49.80;;;;;;4880692;29;20136;-59
2022/03/23 04:04:39;;;;;;;9.07;7.68;;;20.20;49.80;;;;;;4880853;29;20160;-59
2022/03/23 04:07:05;;;;;;;11.00;8.10;;;20.20;49.80;;;;;;4880001;29;20056;-59
2022/03/23 04:09:30;;;;;;;12.65;8.23;;;20.20;49.90;;;;;;4880562;29;20045;-59
2022/03/23 04:11:56;;;;;;;10.70;8.13;;;20.20;49.80;;;;;;4880265;29;20049;-59
2022/03/23 04:14:21;;;;;;;10.30;8.20;;;20.20;49.80;;;;;;4879777;29;20053;-59
2022/03/23 04:16:47;;;;;;;8.57;7.10;;;20.20;49.80;;;;;;4880368;29;20516;-59
2022/03/23 04:19:12;;;;;;;10.77;7.72;;;20.20;49.80;;;;;;4879951;29;20141;-59
2022/03/23 04:21:38;;;;;;;11.43;8.23;;;20.20;49.80;;;;;;4879436;29;20084;-58
2022/03/23 04:24:04;;;;;;;11.30;7.45;;;20.20;49.70;;;;;;4880350;29;20132;-59
2022/03/23 04:26:29;;;;;;;10.18;7.45;;;20.20;49.70;;;;;;4879189;29;20080;-59
2022/03/23 04:28:55;;;;;;;10.40;7.63;;;20.20;49.80;;;;;;4879842;29;20158;-59
2022/03/23 04:31:20;;;;;;;10.00;7.35;;;20.30;49.80;;;;;;4880102;29;20044;-59
2022/03/23 04:33:46;;;;;;;10.68;7.45;;;20.20;49.90;;;;;;4880055;29;20098;-59
2022/03/23 04:36:12;;;;;;;8.95;7.55;;;20.20;49.80;;;;;;4879345;29;20060;-58
2022/03/23 04:38:37;;;;;;;8.90;7.30;;;20.20;49.70;;;;;;4880201;29;20053;-58
2022/03/23 04:41:04;;;;;;;11.05;7.80;;;20.30;50.50;;;;;;4880242;29;20055;-58
2022/03/23 04:43:30;;;;;;;10.35;8.07;;;20.30;49.70;;;;;;4879186;29;20049;-58
2022/03/23 04:45:55;;;;;;;9.98;7.40;;;20.30;49.70;;;;;;4879966;29;20060;-59
2022/03/23 04:48:21;;;;;;;9.18;7.10;;;20.30;49.60;;;;;;4878983;29;20071;-59
2022/03/23 04:50:48;;;;;;;8.75;6.68;;;20.30;49.60;;;;;;4880110;29;20413;-59
2022/03/23 04:53:14;;;;;;;9.45;7.13;;;20.30;49.70;;;;;;4879700;29;20553;-59
2022/03/23 04:55:40;;;;;;;10.70;7.82;;;20.30;49.60;;;;;;4879149;29;20481;-59
2022/03/23 04:58:05;;;;;;;10.00;7.40;;;20.30;49.70;;;;;;4879929;29;20090;-58
2022/03/23 05:00:31;;;;;;;9.38;7.13;;;20.30;49.60;;;;;;4877480;29;20071;-58
2022/03/23 05:02:56;;;;;;;10.20;7.85;;;20.30;49.80;;;;;;4872348;29;20100;-59
2022/03/23 05:05:22;;;;;;;10.07;7.28;;;20.30;49.60;;;;;;4878860;29;20489;-59
2022/03/23 05:07:47;;;;;;;9.88;7.55;;;20.30;49.60;;;;;;4879365;29;20101;-59
2022/03/23 05:10:13;;;;;;;8.93;6.88;;;20.30;49.50;;;;;;4878670;29;20049;-59
2022/03/23 05:12:40;;;;;;;9.15;7.38;;;20.30;49.60;;;;;;4879460;29;20057;-59
2022/03/23 05:15:06;;;;;;;10.43;6.93;;;20.30;49.50;;;;;;4879583;29;20104;-59
2022/03/23 05:17:35;;;;;;;10.88;7.53;;;20.40;49.50;;;;;;4878573;29;20037;-59
2022/03/23 05:20:01;;;;;;;9.35;7.07;;;20.30;49.20;;;;;;4879247;29;20509;-59
2022/03/23 05:22:27;;;;;;;9.10;7.10;;;20.30;49.40;;;;;;4879296;29;20053;-59
2022/03/23 05:24:53;;;;;;;8.57;6.82;;;20.40;49.50;;;;;;4878756;29;20056;-59
2022/03/23 05:27:18;;;;;;;9.63;6.55;;;20.40;49.40;;;;;;4879354;29;20052;-58
2022/03/23 05:29:43;;;;;;;10.02;7.28;;;20.30;49.30;;;;;;4879266;29;20497;-58
2022/03/23 05:32:16;;;;;;;8.80;7.13;;;20.40;49.40;;;;;;4878566;29;20132;-60
2022/03/23 05:34:48;;;;;;;9.98;6.80;;;20.40;49.40;;;;;;4879380;29;20056;-59
2022/03/23 05:37:14;;;;;;;9.88;7.15;;;20.40;49.30;;;;;;4878970;29;20049;-59
2022/03/23 05:39:40;;;;;;;9.50;7.28;;;20.40;49.30;;;;;;4878414;29;20071;-59
2022/03/23 05:42:07;;;;;;;10.05;6.90;;;20.40;49.20;;;;;;4879362;29;20481;-59
2022/03/23 05:44:33;;;;;;;9.95;7.30;;;20.40;50.00;;;;;;4877760;29;20378;-59
2022/03/23 05:46:59;;;;;;;9.60;7.40;;;20.40;49.30;;;;;;4879213;29;20063;-59
2022/03/23 05:49:24;;;;;;;9.75;7.35;;;20.40;49.20;;;;;;4878933;29;20041;-59
2022/03/23 05:51:50;;;;;;;9.43;7.35;;;20.30;49.20;;;;;;4878333;29;20101;-59
2022/03/23 05:54:16;;;;;;;10.23;6.80;;;20.30;49.10;;;;;;4877891;29;20045;-59
2022/03/23 05:56:41;;;;;;;9.68;7.45;;;20.30;49.20;;;;;;4879148;29;20094;-59
2022/03/23 05:59:07;;;;;;;9.73;7.45;;;20.30;49.20;;;;;;4877804;29;20374;-59
2022/03/23 06:01:32;;;;;;;10.07;7.38;;;20.30;49.10;;;;;;4878395;29;20493;-59
2022/03/23 06:03:58;;;;;;;10.20;7.57;;;20.30;49.80;;;;;;4878881;29;20041;-59
2022/03/23 06:06:24;;;;;;;8.55;6.50;;;20.30;49.10;;;;;;4877323;29;20049;-59
2022/03/23 06:08:49;;;;;;;11.32;6.97;;;20.30;49.20;;;;;;4878435;29;20045;-59
2022/03/23 06:11:15;;;;;;;9.60;7.65;;;20.30;49.30;;;;;;4878388;29;20132;-59
2022/03/23 06:13:40;;;;;;;10.25;7.50;;;20.30;49.20;;;;;;4877511;29;20493;-59
2022/03/23 06:16:06;;;;;;;10.85;7.13;;;20.30;49.20;;;;;;4878972;29;20511;-59
2022/03/23 06:18:32;;;;;;;8.98;7.20;;;20.30;49.20;;;;;;4878670;29;20555;-59
2022/03/23 06:20:58;;;;;;;10.45;7.78;;;20.30;49.20;;;;;;4878063;29;20052;-59
2022/03/23 06:23:25;;;;;;;9.65;7.07;;;20.30;49.20;;;;;;4878238;29;20045;-59
2022/03/23 06:25:50;;;;;;;9.32;7.15;;;20.30;49.20;;;;;;4878875;29;20128;-59
2022/03/23 06:28:16;;;;;;;9.82;6.80;;;20.30;49.20;;;;;;4877224;29;20148;-59
2022/03/23 06:30:42;;;;;;;10.02;7.47;;;20.30;49.20;;;;;;4878052;29;20073;-58
2022/03/23 06:33:07;;;;;;;10.90;8.00;;;20.30;49.20;;;;;;4878403;29;20077;-58
2022/03/23 06:35:33;;;;;;;10.23;7.55;;;20.40;49.30;;;;;;4877115;29;20131;-59
2022/03/23 06:37:59;;;;;;;9.40;7.53;;;20.30;49.20;;;;;;4877610;29;20040;-59
2022/03/23 06:40:24;;;;;;;10.93;7.60;;;20.40;49.20;;;;;;4877434;29;20069;-59
2022/03/23 06:42:50;;;;;;;12.57;7.20;;;20.40;49.20;;;;;;4876465;29;20045;-59
2022/03/23 06:45:15;;;;;;;12.15;7.45;;;20.40;49.10;;;;;;4878025;29;20493;-59
2022/03/23 06:47:41;;;;;;;11.20;7.47;;;20.40;49.30;;;;;;4878461;29;20049;-59
2022/03/23 06:50:10;;;;;;;8.82;7.00;;;20.40;49.40;;;;;;4879345;29;20041;-59
2022/03/23 06:52:35;;;;;;;10.02;7.55;;;20.40;49.40;;;;;;4881885;29;20045;-59
2022/03/23 06:55:01;;;;;;;10.00;7.10;;;20.40;49.50;;;;;;4880262;29;20409;-59
2022/03/23 06:57:27;;;;;;;10.95;7.40;;;20.40;49.60;;;;;;4881336;29;20076;-59
2022/03/23 06:59:52;;;;;;;10.75;7.63;;;20.40;49.80;;;;;;4882002;29;20101;-58
2022/03/23 07:02:18;;;;;;;12.05;7.80;;;20.50;49.90;;;;;;4880218;29;20049;-58
2022/03/23 07:04:43;;;;;;;11.73;8.07;;;20.50;50.00;;;;;;4898046;29;20052;-58
2022/03/23 07:07:09;;;;;;;9.65;7.38;;;20.50;50.00;;;;;;4886939;29;20120;-58
2022/03/23 07:09:38;;;;;;;13.63;8.20;;;20.50;50.10;;;;;;4885799;29;20049;-59
2022/03/23 07:12:12;;;;;;;11.70;7.93;;;20.50;50.10;;;;;;4887770;29;20052;-58
2022/03/23 07:14:39;;;;;;;13.88;8.65;;;20.60;50.40;;;;;;4880934;29;20057;-57
2022/03/23 07:17:05;;;;;;;11.07;7.85;;;20.60;50.40;;;;;;4880164;29;20068;-58
2022/03/23 07:19:31;;;;;;;10.98;7.97;;;20.60;50.50;;;;;;4880474;29;20489;-57
2022/03/23 07:21:56;;;;;;;14.95;8.32;;;20.60;50.70;;;;;;4880827;29;20485;-58
2022/03/23 07:24:22;;;;;;;12.68;8.32;;;20.70;50.80;;;;;;4879189;29;20055;-57
2022/03/23 07:26:48;;;;;;;14.05;8.30;;;20.70;50.80;;;;;;4877107;29;20037;-58
2022/03/23 07:29:13;;;;;;;12.10;8.77;;;20.70;50.90;;;;;;4880117;29;20041;-58
2022/03/23 07:31:39;;;;;;;12.95;8.38;;;20.70;51.00;;;;;;4880829;29;20053;-59
2022/03/23 07:34:05;;;;;;;14.60;8.38;;;20.80;51.10;;;;;;4880144;29;20053;-58
2022/03/23 07:36:30;;;;;;;13.27;8.88;;;20.80;51.20;;;;;;4879293;29;20051;-58
2022/03/23 07:38:56;;;;;;;16.73;8.32;;;20.80;51.20;;;;;;4878419;29;20041;-58
2022/03/23 07:41:21;;;;;;;14.73;8.20;;;20.80;51.20;;;;;;4879155;29;20060;-58
2022/03/23 07:43:47;;;;;;;21.10;8.75;;;20.90;51.40;;;;;;4879688;29;20041;-58
2022/03/23 07:46:12;;;;;;;11.82;8.32;;;20.90;51.60;;;;;;4877664;29;20041;-58
2022/03/23 07:48:38;;;;;;;11.98;8.50;;;20.90;51.60;;;;;;4879789;29;20053;-58
2022/03/23 07:51:04;;;;;;;15.82;7.93;;;20.90;51.70;;;;;;4879961;29;20044;-58
2022/03/23 07:53:29;;;;;;;16.05;9.10;;;20.90;51.70;;;;;;4879680;29;20041;-57
2022/03/23 07:55:55;;;;;;;11.52;7.63;;;21.00;51.80;;;;;;4880227;29;20388;-58
2022/03/23 07:58:21;;;;;;;12.52;8.00;;;21.00;51.70;;;;;;4878808;29;20033;-58
2022/03/23 08:00:47;;;;;;;13.77;8.00;;;21.00;51.70;;;;;;4875476;29;20041;-58
2022/03/23 08:03:13;;;;;;;13.10;7.63;;;21.00;51.80;;;;;;4880831;29;20470;-56
2022/03/23 08:05:39;;;;;;;12.63;7.80;;;21.10;51.80;;;;;;4879818;29;20049;-58
2022/03/23 08:08:06;;;;;;;13.60;8.45;;;21.10;51.80;;;;;;4879781;29;20051;-58
2022/03/23 08:10:31;;;;;;;13.98;7.78;;;21.10;51.80;;;;;;4879875;29;20049;-56
2022/03/23 08:12:57;;;;;;;13.00;8.23;;;21.10;51.70;;;;;;4878747;29;20132;-57
2022/03/23 08:15:24;;;;;;;12.02;7.90;;;21.20;51.90;;;;;;4879143;29;20056;-56
2022/03/23 08:17:50;;;;;;;12.00;7.93;;;21.10;51.80;;;;;;4878808;29;20502;-58
2022/03/23 08:20:35;;;;;;;11.77;7.53;;;21.20;51.90;;;;;;4878627;29;20077;-58
2022/03/23 08:23:05;;;;;;;11.57;8.02;;;21.20;51.90;;;;;;4878439;29;20049;-57
2022/03/23 08:25:30;;;;;;;10.27;7.15;;;21.20;51.90;;;;;;4876426;29;20060;-58
2022/03/23 08:27:56;;;;;;;18.25;8.05;;;21.20;52.10;;;;;;4878270;29;20033;-57
2022/03/23 08:30:22;;;;;;;11.13;6.90;;;21.30;52.10;;;;;;4879692;29;20064;-57
2022/03/23 08:32:48;;;;;;;11.90;8.05;;;21.30;52.00;;;;;;4877931;29;20045;-57
2022/03/23 08:35:13;;;;;;;13.30;7.78;;;21.30;51.60;;;;;;4877776;29;20104;-57
2022/03/23 08:37:39;;;;;;;11.82;7.88;;;21.30;51.40;;;;;;4879109;29;20516;-56
2022/03/23 08:40:05;;;;;;;13.15;9.02;;;21.30;51.40;;;;;;4879261;29;20041;-56
2022/03/23 08:42:31;;;;;;;13.15;8.63;;;21.40;51.00;;;;;;4878222;29;20048;-57
2022/03/23 08:44:56;;;;;;;12.55;9.20;;;21.40;50.60;;;;;;4879619;29;20045;-56
2022/03/23 08:47:22;;;;;;;15.38;10.05;;;21.40;50.10;;;;;;4878977;29;20064;-57
2022/03/23 08:49:48;;;;;;;15.68;10.90;;;21.40;49.20;;;;;;4878758;29;20119;-57
2022/03/23 08:52:13;;;;;;;15.43;11.57;;;21.40;47.80;;;;;;4879260;29;20045;-57
2022/03/23 08:54:39;;;;;;;16.98;11.73;;;21.40;46.50;;;;;;4889476;29;20044;-57
2022/03/23 08:57:04;;;;;;;15.95;10.82;;;21.40;45.60;;;;;;4894175;29;20457;-57
2022/03/23 08:59:30;;;;;;;14.63;10.05;;;21.30;45.10;;;;;;4880327;29;20049;-57
2022/03/23 09:01:56;;;;;;;12.68;9.18;;;21.30;45.80;;;;;;4878722;29;20132;-57
2022/03/23 09:04:22;;;;;;;12.25;8.80;;;21.40;45.30;;;;;;4879336;29;20076;-57
2022/03/23 09:06:48;;;;;;;16.73;9.70;;;21.40;45.20;;;;;;4879553;29;20091;-57
2022/03/23 09:09:13;;;;;;;13.35;8.15;;;21.40;45.30;;;;;;4878390;29;20068;-57
2022/03/23 09:11:41;;;;;;;14.57;8.50;;;21.40;45.40;;;;;;4879225;29;20128;-57
2022/03/23 09:14:07;;;;;;;;;;;21.40;45.50;;;;;;4878859;29;20060;-57
2022/03/23 09:16:32;;;;;;;12.18;7.50;;;21.40;45.70;;;;;;4878363;29;19979;-57
2022/03/23 09:18:59;;;;;;;10.82;7.63;;;21.40;45.90;;;;;;4879140;29;20532;-58
2022/03/23 09:21:25;;;;;;;11.07;7.00;;;21.40;45.90;;;;;;4878231;29;20506;-58
2022/03/23 09:23:50;;;;;;;9.65;7.10;;;21.40;46.00;;;;;;4878255;29;20053;-57
2022/03/23 09:26:16;;;;;;;12.05;7.55;;;21.40;46.10;;;;;;4879180;29;20044;-58
2022/03/23 09:28:41;;;;;;;13.38;6.57;;;21.40;46.20;;;;;;4879084;29;20044;-57
2022/03/23 09:31:07;;;;;;;9.85;6.78;;;21.40;46.20;;;;;;4877536;29;20088;-57
2022/03/23 09:33:33;;;;;;;9.63;6.38;;;21.50;46.80;;;;;;4877997;29;20037;-57
2022/03/23 09:35:58;;;;;;;10.50;6.03;;;21.50;47.00;;;;;;4877865;29;20048;-57
2022/03/23 09:38:24;;;;;;;9.38;5.88;;;21.50;47.20;;;;;;4876461;29;20527;-57
2022/03/23 09:40:50;;;;;;;12.43;6.88;;;21.50;47.40;;;;;;4878354;29;20135;-56
2022/03/23 09:43:16;;;;;;;11.15;6.13;;;21.50;47.70;;;;;;4878249;29;20069;-57
2022/03/23 09:45:47;;;;;;;10.25;6.40;;;21.50;47.80;;;;;;4877086;29;20127;-57
2022/03/23 09:48:20;;;;;;;9.38;6.32;;;21.50;47.90;;;;;;4878438;29;20041;-57
2022/03/23 09:50:53;;;;;;;10.25;6.50;;;21.60;48.10;;;;;;4877641;29;20052;-57
2022/03/23 09:53:21;;;;;;;10.80;5.85;;;21.60;48.00;;;;;;4874489;29;20052;-58
2022/03/23 09:55:47;;;;;;;8.20;5.95;;;21.60;48.10;;;;;;4877830;29;20049;-57
2022/03/23 09:58:12;;;;;;;10.73;6.55;;;21.60;48.20;;;;;;4875109;29;20116;-58
2022/03/23 10:00:39;;;;;;;8.48;5.60;;;21.60;48.20;;;;;;4877381;29;20132;-58
2022/03/23 10:03:14;;;;;;;8.88;5.65;;;21.60;48.10;;;;;;4877939;29;20086;-57
2022/03/23 10:06:09;;;;;;;7.63;5.00;;;21.60;48.30;;;;;;4875114;29;20456;-57
2022/03/23 10:08:41;;;;;;;9.98;6.03;;;21.60;48.30;;;;;;4877976;29;20096;-57
2022/03/23 10:11:41;;;;;;;11.45;6.40;;;21.60;48.30;;;;;;4877089;29;20044;-57
2022/03/23 10:14:44;;;;;;;11.55;7.43;;;21.60;48.40;;;;;;4876870;29;20457;-57
2022/03/23 10:17:47;;;;;;;12.00;6.80;;;21.60;48.40;;;;;;4880434;29;20052;-57
2022/03/23 10:20:13;;;;;;;13.13;7.28;;;21.60;49.00;;;;;;4877258;29;20052;-58
2022/03/23 10:22:50;;;;;;;10.10;6.57;;;21.60;48.40;;;;;;4878714;29;20092;-58
2022/03/23 10:25:16;;;;;;;11.38;6.90;;;21.60;48.80;;;;;;4879013;29;20556;-58
2022/03/23 10:27:41;;;;;;;11.52;6.78;;;21.60;48.70;;;;;;4879464;29;20052;-58
2022/03/23 10:30:07;;;;;;;11.63;6.40;;;21.60;48.80;;;;;;4882616;29;20481;-58
2022/03/23 10:32:34;;;;;;;12.52;6.78;;;21.70;48.90;;;;;;4882259;29;20136;-58
2022/03/23 10:34:59;;;;;;;11.48;6.30;;;21.60;48.90;;;;;;4881479;29;20047;-58
2022/03/23 10:37:26;;;;;;;12.05;6.57;;;21.60;48.90;;;;;;4881468;29;20409;-57
2022/03/23 10:39:52;;;;;;;9.75;6.38;;;21.60;48.80;;;;;;4881418;29;20045;-57
2022/03/23 10:42:19;;;;;;;12.18;6.97;;;21.60;48.90;;;;;;4880253;29;20108;-58
2022/03/23 10:44:47;;;;;;;9.38;6.07;;;21.60;49.00;;;;;;4880741;29;20049;-58
2022/03/23 10:47:28;;;;;;;;;;;21.70;49.20;;;;;;4881002;29;20048;-57
2022/03/23 10:49:54;;;;;;;12.25;6.43;;;21.60;48.90;;;;;;4880282;29;19924;-58
2022/03/23 10:52:20;;;;;;;10.02;6.18;;;21.60;49.00;;;;;;4881111;29;20633;-58
2022/03/23 10:55:00;;;;;;;11.63;6.68;;;21.70;49.10;;;;;;4879402;29;20128;-57
2022/03/23 10:57:45;;;;;;;10.18;6.13;;;21.70;49.30;;;;;;4878713;29;20509;-57
2022/03/23 11:00:38;;;;;;;11.10;5.72;;;21.70;49.30;;;;;;4879543;29;20045;-58
2022/03/23 11:03:05;;;;;;;10.43;5.97;;;21.70;49.30;;;;;;4878106;29;20059;-58
2022/03/23 11:05:31;;;;;;;9.63;6.00;;;21.70;49.30;;;;;;4881142;29;20120;-58
2022/03/23 11:08:19;;;;;;;9.48;5.70;;;21.70;49.30;;;;;;4880881;29;20571;-58
2022/03/23 11:16:18;;;;;;;11.07;5.72;;;21.70;49.50;;;;;;4878594;29;20486;-57
2022/03/23 11:18:44;;;;;;;8.98;5.82;;;21.70;49.50;;;;;;4878613;29;20045;-58
2022/03/23 11:21:10;;;;;;;9.68;5.93;;;21.70;49.60;;;;;;4881119;29;20068;-58
2022/03/23 11:23:36;;;;;;;10.50;6.10;;;21.70;49.60;;;;;;4880337;29;20045;-58
2022/03/23 11:26:10;;;;;;;9.98;5.53;;;21.70;49.70;;;;;;4881017;29;20542;-58
2022/03/23 11:28:44;;;;;;;9.35;5.55;;;21.70;49.70;;;;;;4880631;29;20454;-57
2022/03/23 11:31:11;;;;;;;8.55;5.70;;;21.70;49.60;;;;;;4880907;29;20063;-58
2022/03/23 11:33:37;;;;;;;8.32;5.38;;;21.70;49.60;;;;;;4890586;29;20120;-58
2022/03/23 11:36:09;;;;;;;8.30;5.45;;;21.70;49.60;;;;;;4881093;29;20068;-58
2022/03/23 11:38:36;;;;;;;7.63;5.03;;;21.80;49.40;;;;;;4879208;29;20055;-58
2022/03/23 11:41:02;;;;;;;10.25;5.78;;;21.70;49.10;;;;;;4880941;29;20056;-57
2022/03/23 11:43:36;;;;;;;7.93;5.57;;;21.80;49.20;;;;;;4879841;29;20048;-58
2022/03/23 11:46:02;;;;;;;8.23;5.65;;;21.80;49.10;;;;;;4880293;29;20045;-58
2022/03/23 11:49:03;;;;;;;9.40;5.70;;;21.80;49.10;;;;;;4880692;29;20553;-58
2022/03/23 11:51:35;;;;;;;8.70;5.88;;;21.80;49.00;;;;;;4865652;29;20074;-58
2022/03/23 11:54:09;;;;;;;9.15;5.70;;;21.80;49.10;;;;;;4881137;29;20086;-58
2022/03/23 11:56:59;;;;;;;10.43;5.88;;;21.80;49.20;;;;;;4880749;29;20045;-58
2022/03/23 11:59:29;;;;;;;9.38;5.97;;;21.80;49.00;;;;;;4879886;29;20132;-58
2022/03/23 12:01:55;;;;;;;9.73;6.18;;;21.80;49.00;;;;;;4881063;29;20049;-58
2022/03/23 12:04:27;;;;;;;9.95;6.32;;;21.80;48.80;;;;;;4879261;29;20049;-58
2022/03/23 12:07:02;;;;;;;8.95;6.60;;;21.80;48.80;;;;;;4880243;29;20040;-56
2022/03/23 12:09:40;;;;;;;10.32;6.53;;;21.80;49.00;;;;;;4878167;29;20052;-56
2022/03/23 12:12:12;;;;;;;9.93;6.10;;;21.80;49.10;;;;;;4876793;29;20071;-57
2022/03/23 12:14:39;;;;;;;7.70;6.10;;;21.80;49.30;;;;;;4879763;29;20425;-57
2022/03/23 12:17:16;;;;;;;8.48;5.97;;;21.80;49.30;;;;;;4879965;29;20047;-57
2022/03/23 12:19:52;;;;;;;10.10;5.63;;;21.90;49.50;;;;;;4879647;29;20053;-58
2022/03/23 12:22:34;;;;;;;9.85;6.10;;;21.90;49.70;;;;;;4880051;29;20128;-57
2022/03/23 12:25:37;;;;;;;11.20;5.75;;;21.90;49.80;;;;;;4880478;29;20127;-57
2022/03/23 12:28:28;;;;;;;11.50;5.40;;;21.90;49.80;;;;;;4879973;29;20045;-57
2022/03/23 12:30:56;;;;;;;11.38;5.80;;;21.90;50.00;;;;;;4879978;29;20044;-57
2022/03/23 12:33:24;;;;;;;9.00;5.85;;;21.90;50.00;;;;;;4878963;29;20096;-57
2022/03/23 12:35:50;;;;;;;10.68;5.80;;;21.90;50.10;;;;;;4879833;29;20112;-57
2022/03/23 12:38:24;;;;;;;8.73;5.97;;;22.00;50.20;;;;;;4879296;29;20135;-57
2022/03/23 12:40:51;;;;;;;9.75;5.57;;;22.00;50.30;;;;;;4879062;29;20052;-57
2022/03/23 12:43:37;;;;;;;9.02;5.55;;;22.00;50.40;;;;;;4877812;29;20491;-57
2022/03/23 12:46:16;;;;;;;7.95;5.53;;;22.00;50.50;;;;;;4879374;29;20501;-58
2022/03/23 13:00:09;;;;;;;9.00;5.10;;;22.00;50.60;;;;;;4877364;29;20053;-58
2022/03/23 13:02:35;;;;;;;9.15;4.78;;;22.10;50.60;;;;;;4878890;29;20139;-58
2022/03/23 13:05:03;;;;;;;6.57;4.88;;;22.10;50.60;;;;;;4875989;29;20556;-57
2022/03/23 13:07:29;;;;;;;11.25;5.30;;;22.10;50.60;;;;;;4862701;29;20071;-57
2022/03/23 13:10:01;;;;;;;9.75;5.55;;;22.10;50.60;;;;;;4878779;29;20401;-57